Time;durP1;ratioP1;P1;durP2;ratioP2;P2;SDS_P1;SDS_P2;PMS_P1;PMS_P2;Temp;Humidity;BMP_temperature;BMP_pressure;BME280_temperature;BME280_humidity;BME280_pressure;Samples;Min_cycle;Max_cycle;Signal;HPM_P1;HPM_P2
2022/08/31 00:04:28;;;;;;;4.95;2.00;;;19.70;93.20;;;;;;2556451;23;20001;-74
2022/08/31 00:05:28;;;;;;;1.85;1.20;;;19.70;93.60;;;;;;2556186;23;20365;-74
2022/08/31 00:06:33;;;;;;;2.58;1.30;;;19.70;93.90;;;;;;2555242;23;20001;-74
2022/08/31 00:07:34;;;;;;;2.95;1.52;;;19.80;94.20;;;;;;2556128;23;20065;-74
2022/08/31 00:08:35;;;;;;;3.45;1.30;;;19.80;94.70;;;;;;2555429;23;20008;-75
2022/08/31 00:09:35;;;;;;;3.15;1.60;;;19.80;95.00;;;;;;2555430;23;20043;-74
2022/08/31 00:10:39;;;;;;;3.40;1.45;;;19.80;95.30;;;;;;2556130;23;20001;-75
2022/08/31 00:11:40;;;;;;;2.63;1.50;;;19.80;95.80;;;;;;2556669;23;20076;-74
2022/08/31 00:12:42;;;;;;;4.05;1.13;;;19.70;96.00;;;;;;2555793;23;20052;-74
2022/08/31 00:13:43;;;;;;;4.28;1.63;;;19.70;96.00;;;;;;2554952;23;20071;-75
2022/08/31 00:14:44;;;;;;;2.92;1.58;;;19.70;96.50;;;;;;2555886;23;19997;-74
2022/08/31 00:15:45;;;;;;;3.17;1.17;;;19.80;96.80;;;;;;2556012;23;20469;-74
2022/08/31 00:16:45;;;;;;;6.50;1.63;;;19.70;97.20;;;;;;2555265;23;20033;-75
2022/08/31 00:17:46;;;;;;;2.10;1.42;;;19.70;97.50;;;;;;2554928;23;20032;-74
2022/08/31 00:18:51;;;;;;;2.63;1.55;;;19.70;97.70;;;;;;2555191;23;20315;-74
2022/08/31 00:19:51;;;;;;;3.55;1.30;;;19.70;97.80;;;;;;2555906;23;20124;-74
2022/08/31 00:20:52;;;;;;;2.15;1.40;;;19.70;98.40;;;;;;2556211;23;20063;-74
2022/08/31 00:21:55;;;;;;;1.63;1.10;;;19.70;98.70;;;;;;2556751;23;20008;-74
2022/08/31 00:22:56;;;;;;;2.97;1.40;;;19.70;99.00;;;;;;2556413;23;20024;-74
2022/08/31 00:23:57;;;;;;;1.70;1.17;;;19.70;99.20;;;;;;2555698;23;20001;-74
2022/08/31 00:24:57;;;;;;;5.38;1.60;;;19.70;99.40;;;;;;2555162;23;20009;-74
2022/08/31 00:25:58;;;;;;;1.98;1.30;;;19.70;99.70;;;;;;2555364;23;20009;-74
2022/08/31 00:26:59;;;;;;;2.95;1.00;;;19.70;99.90;;;;;;2556713;23;20337;-75
2022/08/31 00:28:00;;;;;;;1.88;1.13;;;19.60;99.90;;;;;;2555447;23;20009;-74
2022/08/31 00:29:01;;;;;;;1.48;1.00;;;19.70;99.90;;;;;;2555322;23;20020;-74
2022/08/31 00:30:02;;;;;;;2.28;1.20;;;19.70;99.90;;;;;;2556429;23;20001;-74
2022/08/31 00:31:03;;;;;;;1.95;1.45;;;19.60;99.90;;;;;;2556527;23;20038;-74
2022/08/31 00:32:04;;;;;;;3.55;1.50;;;19.60;99.90;;;;;;2555990;23;20016;-74
2022/08/31 00:33:05;;;;;;;1.60;1.27;;;19.60;99.90;;;;;;2555076;23;20093;-74
2022/08/31 00:34:05;;;;;;;1.20;1.10;;;19.60;99.90;;;;;;2555355;23;20008;-74
2022/08/31 00:35:06;;;;;;;1.48;1.00;;;19.60;99.90;;;;;;2555497;23;20009;-74
2022/08/31 00:36:11;;;;;;;1.45;1.02;;;19.60;99.90;;;;;;2555163;23;20040;-75
2022/08/31 00:37:12;;;;;;;4.32;1.40;;;19.60;99.90;;;;;;2555615;23;20009;-74
2022/08/31 00:38:12;;;;;;;1.08;1.05;;;19.60;99.90;;;;;;2555743;23;20001;-75
2022/08/31 00:39:13;;;;;;;3.28;1.10;;;19.60;99.90;;;;;;2556423;23;20001;-74
2022/08/31 00:40:14;;;;;;;1.45;1.20;;;19.60;99.90;;;;;;2555603;23;20056;-74
2022/08/31 00:41:16;;;;;;;3.20;1.23;;;19.60;99.90;;;;;;2555087;23;20012;-74
2022/08/31 00:42:17;;;;;;;1.38;1.02;;;19.60;99.90;;;;;;2556694;23;20057;-74
2022/08/31 00:43:58;;;;;;;1.27;1.17;;;19.60;99.90;;;;;;2555329;23;20009;-74
2022/08/31 00:44:58;;;;;;;1.63;1.27;;;19.50;99.90;;;;;;2518268;23;20052;-75
2022/08/31 00:45:59;;;;;;;2.05;1.42;;;19.50;99.90;;;;;;2506017;23;20002;-74
2022/08/31 00:46:59;;;;;;;1.85;1.33;;;19.50;99.90;;;;;;2506456;23;20093;-75
2022/08/31 00:48:00;;;;;;;1.80;1.10;;;19.50;99.90;;;;;;2506857;23;20115;-74
2022/08/31 00:49:06;;;;;;;1.40;1.20;;;19.60;99.90;;;;;;2518589;23;20528;-75
2022/08/31 00:50:12;;;;;;;2.85;1.40;;;19.60;99.90;;;;;;2519365;23;20014;-74
2022/08/31 00:51:13;;;;;;;2.35;1.33;;;19.50;99.90;;;;;;2556594;23;20009;-74
2022/08/31 00:52:16;;;;;;;1.20;1.10;;;19.60;99.90;;;;;;2564499;23;20016;-74
2022/08/31 00:53:17;;;;;;;1.33;1.15;;;19.60;99.90;;;;;;2568586;23;20507;-74
2022/08/31 00:54:24;;;;;;;1.95;1.15;;;19.60;99.90;;;;;;2555060;23;20475;-74
2022/08/31 00:55:34;;;;;;;1.60;1.23;;;19.50;99.90;;;;;;2555533;23;20012;-74
2022/08/31 00:56:35;;;;;;;4.03;1.15;;;19.50;99.90;;;;;;2554975;23;20009;-74
2022/08/31 00:57:40;;;;;;;2.17;1.15;;;19.50;99.90;;;;;;2555804;23;20001;-74
2022/08/31 00:58:40;;;;;;;1.42;1.00;;;19.50;99.90;;;;;;2568750;23;20004;-74
2022/08/31 00:59:43;;;;;;;1.70;1.13;;;19.50;99.90;;;;;;2568570;23;19993;-74
2022/08/31 01:00:46;;;;;;;2.15;1.08;;;19.50;99.90;;;;;;2568354;23;20080;-74
2022/08/31 01:01:47;;;;;;;4.63;1.30;;;19.50;99.90;;;;;;2569073;23;20079;-74
2022/08/31 01:02:48;;;;;;;3.10;1.20;;;19.50;99.90;;;;;;2568169;23;20040;-74
2022/08/31 01:03:49;;;;;;;4.68;1.58;;;19.50;99.90;;;;;;2554922;23;20001;-74
2022/08/31 01:04:50;;;;;;;2.13;1.42;;;19.40;99.90;;;;;;2555614;23;20470;-74
2022/08/31 01:05:51;;;;;;;1.70;1.45;;;19.50;99.90;;;;;;2568067;23;20302;-74
2022/08/31 01:06:52;;;;;;;2.58;1.20;;;19.50;99.90;;;;;;2568575;23;19997;-74
2022/08/31 01:07:53;;;;;;;3.38;1.25;;;19.50;99.90;;;;;;2555442;23;20365;-74
2022/08/31 01:08:57;;;;;;;1.50;1.00;;;19.40;99.90;;;;;;2555017;23;20013;-74
2022/08/31 01:09:58;;;;;;;1.20;1.10;;;19.40;99.90;;;;;;2569004;23;20008;-74
2022/08/31 01:10:59;;;;;;;5.70;1.40;;;19.40;99.90;;;;;;2568443;23;20005;-74
2022/08/31 01:12:00;;;;;;;3.42;1.08;;;19.40;99.90;;;;;;2555613;23;20048;-74
2022/08/31 01:13:02;;;;;;;1.27;0.95;;;19.40;99.90;;;;;;2555062;23;20342;-74
2022/08/31 01:14:03;;;;;;;1.50;1.30;;;19.40;99.90;;;;;;2568572;23;20032;-74
2022/08/31 01:15:06;;;;;;;1.35;1.08;;;19.40;99.90;;;;;;2568780;23;20032;-74
2022/08/31 01:16:11;;;;;;;2.25;1.13;;;19.40;99.90;;;;;;2568387;23;20119;-74
2022/08/31 01:17:13;;;;;;;1.33;1.08;;;19.40;99.90;;;;;;2568416;23;20031;-74
2022/08/31 01:18:14;;;;;;;2.70;1.60;;;19.40;99.90;;;;;;2568677;23;20000;-74
2022/08/31 01:19:32;;;;;;;2.25;1.08;;;19.40;99.90;;;;;;2568505;23;20329;-74
2022/08/31 01:20:58;;;;;;;3.78;1.17;;;19.40;99.90;;;;;;2555454;23;20001;-74
2022/08/31 01:22:14;;;;;;;2.63;1.20;;;19.40;99.90;;;;;;2548526;23;20055;-74
2022/08/31 01:23:28;;;;;;;4.40;1.30;;;19.40;99.90;;;;;;2546911;23;20024;-74
2022/08/31 01:24:31;;;;;;;4.32;1.08;;;19.40;99.90;;;;;;2558454;23;20338;-74
2022/08/31 01:25:34;;;;;;;3.17;1.23;;;19.30;99.90;;;;;;2555248;23;20016;-74
2022/08/31 01:26:37;;;;;;;2.13;1.13;;;19.30;99.90;;;;;;2555598;23;20045;-74
2022/08/31 01:27:38;;;;;;;1.63;1.20;;;19.30;99.90;;;;;;2555131;23;20449;-74
2022/08/31 01:28:38;;;;;;;3.50;1.60;;;19.40;99.90;;;;;;2555216;23;20079;-74
2022/08/31 01:29:39;;;;;;;1.15;1.00;;;19.30;99.90;;;;;;2555247;23;19997;-74
2022/08/31 01:30:42;;;;;;;1.35;0.90;;;19.40;99.90;;;;;;2555770;23;19993;-74
2022/08/31 01:31:46;;;;;;;2.13;1.40;;;19.40;99.90;;;;;;2555582;23;20012;-74
2022/08/31 01:32:47;;;;;;;1.10;1.00;;;19.40;99.90;;;;;;2555985;23;19997;-74
2022/08/31 01:33:48;;;;;;;2.33;1.20;;;19.40;99.90;;;;;;2567488;23;20326;-74
2022/08/31 01:34:49;;;;;;;2.50;1.13;;;19.40;99.90;;;;;;2568576;23;20155;-74
2022/08/31 01:35:49;;;;;;;2.25;1.08;;;19.40;99.90;;;;;;2568142;23;20000;-74
2022/08/31 01:36:50;;;;;;;1.65;0.98;;;19.40;99.90;;;;;;2568103;23;20567;-75
2022/08/31 01:37:52;;;;;;;2.25;1.20;;;19.40;99.90;;;;;;2568535;23;20020;-75
2022/08/31 01:38:53;;;;;;;0.93;0.80;;;19.40;99.90;;;;;;2568062;23;20460;-74
2022/08/31 01:39:53;;;;;;;2.53;1.30;;;19.40;99.90;;;;;;2568751;23;20321;-74
2022/08/31 01:40:57;;;;;;;3.25;1.30;;;19.30;99.90;;;;;;2555533;23;20398;-75
2022/08/31 01:41:57;;;;;;;2.58;1.02;;;19.30;99.90;;;;;;2556051;23;20073;-74
2022/08/31 01:42:58;;;;;;;2.90;1.13;;;19.30;99.90;;;;;;2568679;23;20035;-74
2022/08/31 01:43:59;;;;;;;1.80;1.20;;;19.30;99.90;;;;;;2569286;23;20000;-74
2022/08/31 01:45:00;;;;;;;1.10;1.10;;;19.30;99.90;;;;;;2555860;23;20032;-74
2022/08/31 01:46:07;;;;;;;1.35;1.20;;;19.30;99.90;;;;;;2556335;23;20060;-74
2022/08/31 01:47:08;;;;;;;2.00;1.40;;;19.30;99.90;;;;;;2555870;23;20009;-74
2022/08/31 01:48:09;;;;;;;2.15;0.90;;;19.30;99.90;;;;;;2556092;23;20036;-74
2022/08/31 01:49:10;;;;;;;2.85;0.98;;;19.30;99.90;;;;;;2569467;23;20005;-74
2022/08/31 01:50:11;;;;;;;3.80;1.20;;;19.30;99.90;;;;;;2569156;23;20009;-74
2022/08/31 01:51:16;;;;;;;1.30;1.20;;;19.20;99.90;;;;;;2556256;23;20044;-74
2022/08/31 01:52:16;;;;;;;2.97;1.30;;;19.20;99.90;;;;;;2555887;23;20021;-75
2022/08/31 01:53:17;;;;;;;1.85;1.13;;;19.20;99.90;;;;;;2556720;23;20005;-74
2022/08/31 01:54:19;;;;;;;1.77;1.30;;;19.20;99.90;;;;;;2557148;23;20388;-74
2022/08/31 01:55:19;;;;;;;2.03;1.42;;;19.20;99.90;;;;;;2555032;23;20350;-74
2022/08/31 01:56:29;;;;;;;3.13;1.10;;;19.20;99.90;;;;;;2555946;23;20005;-74
2022/08/31 01:57:30;;;;;;;3.00;1.60;;;19.20;99.90;;;;;;2556980;23;20055;-74
2022/08/31 01:58:30;;;;;;;1.10;0.93;;;19.20;99.90;;;;;;2556145;23;20009;-74
2022/08/31 01:59:31;;;;;;;1.73;1.35;;;19.20;99.90;;;;;;2555270;23;20001;-74
2022/08/31 02:00:32;;;;;;;1.75;1.10;;;19.20;99.90;;;;;;2555776;23;20005;-74
2022/08/31 02:01:36;;;;;;;1.48;0.98;;;19.20;99.90;;;;;;2556183;23;20012;-74
2022/08/31 02:02:37;;;;;;;1.23;1.13;;;19.20;99.90;;;;;;2557202;23;20043;-74
2022/08/31 02:03:38;;;;;;;1.15;1.05;;;19.20;99.90;;;;;;2556354;23;20055;-74
2022/08/31 02:04:38;;;;;;;2.67;0.90;;;19.20;99.90;;;;;;2555659;23;20009;-74
2022/08/31 02:05:39;;;;;;;1.88;1.25;;;19.20;99.90;;;;;;2556027;23;19997;-74
2022/08/31 02:06:43;;;;;;;1.48;1.00;;;19.20;99.90;;;;;;2556162;23;20068;-74
2022/08/31 02:07:43;;;;;;;1.70;1.25;;;19.20;99.90;;;;;;2556027;23;20004;-74
2022/08/31 02:08:44;;;;;;;2.35;1.33;;;19.20;99.90;;;;;;2556360;23;20016;-74
2022/08/31 02:09:45;;;;;;;1.90;1.20;;;19.20;99.90;;;;;;2555734;23;20005;-74
2022/08/31 02:10:46;;;;;;;2.78;1.40;;;19.20;99.90;;;;;;2556402;23;20005;-74
2022/08/31 02:11:47;;;;;;;3.65;0.85;;;19.20;99.90;;;;;;2557011;23;20008;-74
2022/08/31 02:12:48;;;;;;;1.10;1.05;;;19.20;99.90;;;;;;2556851;23;20005;-74
2022/08/31 02:13:49;;;;;;;2.42;0.80;;;19.20;99.90;;;;;;2555798;23;20056;-74
2022/08/31 02:14:49;;;;;;;2.17;1.20;;;19.20;99.90;;;;;;2555603;23;20001;-74
2022/08/31 02:15:50;;;;;;;5.43;1.13;;;19.10;99.90;;;;;;2556752;23;20004;-74
2022/08/31 02:16:50;;;;;;;3.30;1.30;;;19.20;99.90;;;;;;2555704;23;20532;-74
2022/08/31 02:17:51;;;;;;;1.40;1.30;;;19.20;99.90;;;;;;2555828;23;20381;-75
2022/08/31 02:18:52;;;;;;;1.45;0.90;;;19.10;99.90;;;;;;2555951;23;20319;-74
2022/08/31 02:19:52;;;;;;;1.55;0.70;;;19.20;99.90;;;;;;2556002;23;20017;-74
2022/08/31 02:20:53;;;;;;;2.33;1.15;;;19.20;99.90;;;;;;2557352;23;20566;-74
2022/08/31 02:21:54;;;;;;;1.30;1.20;;;19.10;99.90;;;;;;2556297;23;20355;-74
2022/08/31 02:22:54;;;;;;;2.03;1.40;;;19.10;99.90;;;;;;2556328;23;20096;-74
2022/08/31 02:23:55;;;;;;;4.32;1.63;;;19.10;99.90;;;;;;2556579;23;20004;-74
2022/08/31 02:24:55;;;;;;;1.42;1.10;;;19.10;99.90;;;;;;2556451;23;20059;-74
2022/08/31 02:25:56;;;;;;;1.90;1.10;;;19.10;99.90;;;;;;2556617;23;20001;-74
2022/08/31 02:26:57;;;;;;;1.00;0.88;;;19.10;99.90;;;;;;2556574;23;20005;-74
2022/08/31 02:27:58;;;;;;;1.38;1.20;;;19.10;99.90;;;;;;2557074;23;20013;-74
2022/08/31 02:28:58;;;;;;;3.05;1.27;;;19.10;99.90;;;;;;2556580;23;20013;-75
2022/08/31 02:29:59;;;;;;;1.60;1.20;;;19.00;99.90;;;;;;2555995;23;20044;-74
2022/08/31 02:31:00;;;;;;;5.43;1.30;;;19.10;99.90;;;;;;2556128;23;20469;-74
2022/08/31 02:32:00;;;;;;;1.23;1.13;;;19.10;99.90;;;;;;2557039;23;20013;-74
2022/08/31 02:33:01;;;;;;;2.90;1.33;;;19.10;99.90;;;;;;2556366;23;20731;-74
2022/08/31 02:34:02;;;;;;;1.40;1.00;;;19.00;99.90;;;;;;2556933;23;20009;-74
2022/08/31 02:35:04;;;;;;;2.25;1.02;;;19.00;99.90;;;;;;2556360;23;20016;-75
2022/08/31 02:36:04;;;;;;;1.55;1.02;;;19.00;99.90;;;;;;2556758;23;20009;-74
2022/08/31 02:37:05;;;;;;;1.48;1.02;;;19.00;99.90;;;;;;2556893;23;20028;-74
2022/08/31 02:38:07;;;;;;;1.17;1.00;;;19.00;99.90;;;;;;2557102;23;20035;-74
2022/08/31 02:39:07;;;;;;;2.15;1.23;;;19.00;99.90;;;;;;2556811;23;20003;-74
2022/08/31 02:40:09;;;;;;;1.42;1.02;;;19.00;99.90;;;;;;2556078;23;20008;-74
2022/08/31 02:41:10;;;;;;;2.58;1.20;;;19.00;99.90;;;;;;2555776;23;19997;-74
2022/08/31 02:42:10;;;;;;;1.83;1.10;;;19.00;99.90;;;;;;2555991;23;20453;-74
2022/08/31 02:43:11;;;;;;;3.35;1.10;;;19.00;99.90;;;;;;2555888;23;20414;-74
2022/08/31 02:44:12;;;;;;;1.77;0.98;;;19.00;99.90;;;;;;2556262;23;19997;-74
2022/08/31 02:45:13;;;;;;;1.00;1.00;;;19.00;99.90;;;;;;2554823;23;20438;-74
2022/08/31 02:46:13;;;;;;;1.25;1.00;;;19.00;99.90;;;;;;2555564;23;20005;-74
2022/08/31 02:47:14;;;;;;;6.72;1.13;;;19.00;99.90;;;;;;2556809;23;20377;-74
2022/08/31 02:48:15;;;;;;;1.98;1.08;;;18.90;99.90;;;;;;2556194;23;20014;-74
2022/08/31 02:49:15;;;;;;;1.10;1.10;;;19.00;99.90;;;;;;2555856;23;20059;-74
2022/08/31 02:50:17;;;;;;;4.70;1.00;;;18.90;99.90;;;;;;2555470;23;20075;-74
2022/08/31 02:51:18;;;;;;;3.45;1.20;;;19.00;99.90;;;;;;2555925;23;20009;-74
2022/08/31 02:52:19;;;;;;;1.38;1.25;;;18.90;99.90;;;;;;2565960;23;20147;-74
2022/08/31 02:53:21;;;;;;;3.45;1.05;;;18.90;99.90;;;;;;2568982;23;20004;-74
2022/08/31 02:54:22;;;;;;;2.38;1.38;;;19.00;99.90;;;;;;2555543;23;20037;-74
2022/08/31 02:55:24;;;;;;;2.42;1.33;;;19.00;99.90;;;;;;2555334;23;20072;-74
2022/08/31 02:56:25;;;;;;;2.53;1.23;;;18.90;99.90;;;;;;2555482;23;20008;-74
2022/08/31 02:57:25;;;;;;;4.85;1.40;;;18.90;99.90;;;;;;2555434;23;20009;-74
2022/08/31 02:58:26;;;;;;;1.98;1.00;;;18.90;99.90;;;;;;2555634;23;20004;-74
2022/08/31 02:59:27;;;;;;;3.75;1.33;;;18.90;99.90;;;;;;2555737;23;20011;-74
2022/08/31 03:00:28;;;;;;;6.72;1.63;;;18.90;99.90;;;;;;2555820;23;20001;-74
2022/08/31 03:01:29;;;;;;;1.10;1.05;;;18.90;99.90;;;;;;2569148;23;20055;-74
2022/08/31 03:02:29;;;;;;;4.35;0.98;;;18.90;99.90;;;;;;2569401;23;20063;-74
2022/08/31 03:03:30;;;;;;;4.85;1.40;;;18.90;99.90;;;;;;2555313;23;20001;-76
2022/08/31 03:04:31;;;;;;;2.40;1.40;;;18.90;99.90;;;;;;2555653;23;20008;-74
2022/08/31 03:05:31;;;;;;;2.22;1.20;;;18.90;99.90;;;;;;2555937;23;20033;-76
2022/08/31 03:06:32;;;;;;;1.30;1.20;;;18.90;99.90;;;;;;2555728;23;20001;-74
2022/08/31 03:07:37;;;;;;;3.70;1.27;;;18.90;99.90;;;;;;2555981;23;20048;-74
2022/08/31 03:08:38;;;;;;;3.95;1.13;;;18.90;99.90;;;;;;2569363;23;19997;-74
2022/08/31 03:09:38;;;;;;;1.63;1.05;;;18.90;99.90;;;;;;2568895;23;20493;-76
2022/08/31 03:10:39;;;;;;;2.95;1.30;;;18.90;99.90;;;;;;2569093;23;20331;-76
2022/08/31 03:11:40;;;;;;;1.88;1.15;;;18.90;99.90;;;;;;2555805;23;20024;-76
2022/08/31 03:12:41;;;;;;;2.15;1.17;;;18.90;99.90;;;;;;2555468;23;20092;-76
2022/08/31 03:13:42;;;;;;;2.40;1.23;;;19.00;99.90;;;;;;2542623;23;20005;-76
2022/08/31 03:14:42;;;;;;;3.45;1.05;;;19.00;99.90;;;;;;2555692;23;20029;-76
2022/08/31 03:15:43;;;;;;;2.03;1.27;;;18.90;99.90;;;;;;2568766;23;20068;-76
2022/08/31 03:16:44;;;;;;;1.85;1.20;;;19.00;99.90;;;;;;2568689;23;20007;-76
2022/08/31 03:17:46;;;;;;;2.50;1.40;;;19.00;99.90;;;;;;2569014;23;20008;-76
2022/08/31 03:18:47;;;;;;;3.72;1.60;;;19.00;99.90;;;;;;2568784;23;20083;-76
2022/08/31 03:19:48;;;;;;;1.60;1.23;;;18.90;99.90;;;;;;2569237;23;20023;-76
2022/08/31 03:20:48;;;;;;;1.40;1.30;;;19.00;99.90;;;;;;2555140;23;20036;-76
2022/08/31 03:21:49;;;;;;;4.50;1.30;;;19.00;99.90;;;;;;2555708;23;20037;-76
2022/08/31 03:22:49;;;;;;;1.88;1.05;;;18.90;99.90;;;;;;2555977;23;19997;-76
2022/08/31 03:23:50;;;;;;;1.35;1.23;;;18.90;99.90;;;;;;2555404;23;20004;-76
2022/08/31 03:24:50;;;;;;;2.25;1.10;;;18.90;99.90;;;;;;2543629;23;19998;-76
2022/08/31 03:25:51;;;;;;;2.38;1.40;;;18.90;99.90;;;;;;2555729;23;20357;-76
2022/08/31 03:26:55;;;;;;;1.60;1.05;;;18.90;99.90;;;;;;2568632;23;20005;-76
2022/08/31 03:27:55;;;;;;;2.90;1.35;;;18.90;99.90;;;;;;2569244;23;20004;-76
2022/08/31 03:28:56;;;;;;;1.55;1.00;;;18.90;99.90;;;;;;2555123;23;20488;-76
2022/08/31 03:29:57;;;;;;;1.88;1.30;;;19.00;99.90;;;;;;2555455;23;20008;-76
2022/08/31 03:30:58;;;;;;;3.53;1.17;;;18.90;99.90;;;;;;2568979;23;20318;-76
2022/08/31 03:32:00;;;;;;;1.90;1.38;;;18.90;99.90;;;;;;2568555;23;20047;-76
2022/08/31 03:33:01;;;;;;;1.90;1.33;;;18.90;99.90;;;;;;2568878;23;20063;-76
2022/08/31 03:34:01;;;;;;;1.33;1.23;;;18.90;99.90;;;;;;2568879;23;20455;-75
2022/08/31 03:35:02;;;;;;;1.88;1.10;;;18.90;99.90;;;;;;2568933;23;20028;-76
2022/08/31 03:36:04;;;;;;;3.58;1.40;;;18.90;99.90;;;;;;2555512;23;20009;-76
2022/08/31 03:37:04;;;;;;;8.38;1.58;;;18.90;99.90;;;;;;2556210;23;20052;-76
2022/08/31 03:38:07;;;;;;;1.45;1.30;;;18.90;99.90;;;;;;2568415;23;20008;-76
2022/08/31 03:39:07;;;;;;;2.45;1.38;;;18.90;99.90;;;;;;2555823;23;20004;-76
2022/08/31 03:40:08;;;;;;;2.22;1.20;;;18.90;99.90;;;;;;2555835;23;20724;-76
2022/08/31 03:41:11;;;;;;;1.80;1.30;;;18.90;99.90;;;;;;2555773;23;20016;-75
2022/08/31 03:42:12;;;;;;;2.78;1.40;;;18.90;99.90;;;;;;2569163;23;20000;-76
2022/08/31 03:43:13;;;;;;;1.17;1.02;;;18.80;99.90;;;;;;2568503;23;20439;-76
2022/08/31 03:44:13;;;;;;;2.22;1.20;;;18.80;99.90;;;;;;2555692;23;20005;-76
2022/08/31 03:45:14;;;;;;;5.55;1.35;;;18.80;99.90;;;;;;2555576;23;20001;-76
2022/08/31 03:46:15;;;;;;;2.33;1.42;;;18.80;99.90;;;;;;2568649;23;20032;-76
2022/08/31 03:47:15;;;;;;;4.03;1.48;;;18.80;99.90;;;;;;2567975;23;20063;-76
2022/08/31 03:48:16;;;;;;;3.33;1.38;;;18.80;99.90;;;;;;2568405;23;20005;-76
2022/08/31 03:49:17;;;;;;;4.45;1.42;;;18.80;99.90;;;;;;2568771;23;20088;-76
2022/08/31 03:50:18;;;;;;;2.95;1.58;;;18.80;99.90;;;;;;2568795;23;20034;-76
2022/08/31 03:51:19;;;;;;;4.35;1.50;;;18.80;99.90;;;;;;2568772;23;20012;-76
2022/08/31 03:52:20;;;;;;;1.67;1.40;;;18.80;99.90;;;;;;2568628;23;20020;-76
2022/08/31 03:53:21;;;;;;;2.47;1.40;;;18.70;99.90;;;;;;2568016;23;20012;-75
2022/08/31 03:54:21;;;;;;;3.03;1.20;;;18.70;99.90;;;;;;2568409;23;20001;-76
2022/08/31 03:55:22;;;;;;;1.92;1.30;;;18.70;99.90;;;;;;2569070;23;20421;-76
2022/08/31 03:56:22;;;;;;;1.58;1.20;;;18.70;99.90;;;;;;2568542;23;20084;-76
2022/08/31 03:57:23;;;;;;;1.75;1.63;;;18.70;99.90;;;;;;2568932;23;20396;-76
2022/08/31 03:58:23;;;;;;;3.08;1.42;;;18.70;99.90;;;;;;2569138;23;20066;-76
2022/08/31 03:59:24;;;;;;;1.40;1.23;;;18.70;99.90;;;;;;2568722;23;20027;-76
2022/08/31 04:00:25;;;;;;;2.13;1.50;;;18.70;99.90;;;;;;2568352;23;20007;-76
2022/08/31 04:01:26;;;;;;;1.58;1.48;;;18.70;99.90;;;;;;2568747;23;20103;-75
2022/08/31 04:02:26;;;;;;;1.67;1.20;;;18.70;99.90;;;;;;2568658;23;20000;-76
2022/08/31 04:03:28;;;;;;;7.53;1.83;;;18.70;99.90;;;;;;2555382;23;20005;-76
2022/08/31 04:04:28;;;;;;;1.63;1.30;;;18.70;99.90;;;;;;2556012;23;20656;-76
2022/08/31 04:05:32;;;;;;;3.63;1.63;;;18.60;99.90;;;;;;2568743;23;20001;-75
2022/08/31 04:06:33;;;;;;;1.75;1.35;;;18.70;99.90;;;;;;2568283;23;19992;-76
2022/08/31 04:07:36;;;;;;;1.48;1.15;;;18.70;99.90;;;;;;2568732;23;20068;-76
2022/08/31 04:08:37;;;;;;;3.20;1.42;;;18.60;99.90;;;;;;2555568;23;20370;-76
2022/08/31 04:09:38;;;;;;;3.00;1.30;;;18.60;99.90;;;;;;2555483;23;19997;-75
2022/08/31 04:10:39;;;;;;;2.28;1.45;;;18.60;99.90;;;;;;2568750;23;20004;-76
2022/08/31 04:11:42;;;;;;;2.28;1.17;;;18.60;99.90;;;;;;2568727;23;20287;-76
2022/08/31 04:12:43;;;;;;;2.80;1.65;;;18.60;99.90;;;;;;2568593;23;19992;-76
2022/08/31 04:13:44;;;;;;;2.85;1.38;;;18.60;99.90;;;;;;2567745;23;20083;-76
2022/08/31 04:14:45;;;;;;;2.95;1.73;;;18.60;99.90;;;;;;2568324;23;20008;-76
2022/08/31 04:15:45;;;;;;;2.63;1.70;;;18.60;99.90;;;;;;2568815;23;20640;-76
2022/08/31 04:16:46;;;;;;;1.40;1.30;;;18.60;99.90;;;;;;2555039;23;20011;-76
2022/08/31 04:17:46;;;;;;;3.20;1.45;;;18.60;99.90;;;;;;2554976;23;20012;-76
2022/08/31 04:18:47;;;;;;;2.22;1.38;;;18.60;99.90;;;;;;2555368;23;20441;-76
2022/08/31 04:19:48;;;;;;;3.53;1.55;;;18.60;99.90;;;;;;2568752;23;20223;-76
2022/08/31 04:20:48;;;;;;;3.33;1.45;;;18.60;99.90;;;;;;2555694;23;20099;-76
2022/08/31 04:21:49;;;;;;;2.22;1.23;;;18.60;99.90;;;;;;2543445;23;20006;-76
2022/08/31 04:22:49;;;;;;;2.30;1.42;;;18.50;99.90;;;;;;2555532;23;20017;-76
2022/08/31 04:23:51;;;;;;;1.90;1.45;;;18.50;99.90;;;;;;2568202;23;20055;-76
2022/08/31 04:24:51;;;;;;;3.85;1.70;;;18.60;99.90;;;;;;2568792;23;19997;-76
2022/08/31 04:25:52;;;;;;;2.65;1.85;;;18.50;99.90;;;;;;2555580;23;20005;-76
2022/08/31 04:26:53;;;;;;;2.55;1.20;;;18.50;99.90;;;;;;2555315;23;20001;-75
2022/08/31 04:27:55;;;;;;;2.00;1.20;;;18.60;99.90;;;;;;2555879;23;20009;-75
2022/08/31 04:28:56;;;;;;;1.88;1.30;;;18.60;99.90;;;;;;2568557;23;20092;-76
2022/08/31 04:29:56;;;;;;;1.38;1.27;;;18.50;99.90;;;;;;2568873;23;20065;-76
2022/08/31 04:30:57;;;;;;;3.92;1.48;;;18.60;99.90;;;;;;2555759;23;20009;-76
2022/08/31 04:31:57;;;;;;;2.85;1.40;;;18.50;99.90;;;;;;2555463;23;20571;-76
2022/08/31 04:33:00;;;;;;;3.00;1.50;;;18.50;99.90;;;;;;2555091;23;20020;-76
2022/08/31 04:34:02;;;;;;;4.45;1.58;;;18.50;99.90;;;;;;2568877;23;20441;-76
2022/08/31 04:35:03;;;;;;;2.60;1.50;;;18.50;99.90;;;;;;2568691;23;20039;-76
2022/08/31 04:36:08;;;;;;;2.72;1.55;;;18.50;99.90;;;;;;2568478;23;20009;-76
2022/08/31 04:37:13;;;;;;;3.03;1.40;;;18.50;99.90;;;;;;2568945;23;20013;-75
2022/08/31 04:38:13;;;;;;;1.95;1.27;;;18.40;99.90;;;;;;2568178;23;20008;-76
2022/08/31 04:39:14;;;;;;;2.05;1.10;;;18.40;99.90;;;;;;2569023;23;20429;-76
2022/08/31 04:40:19;;;;;;;1.55;1.40;;;18.40;99.90;;;;;;2568430;23;20005;-76
2022/08/31 04:41:22;;;;;;;2.50;1.50;;;18.40;99.90;;;;;;2568755;23;20000;-76
2022/08/31 04:42:22;;;;;;;2.05;1.60;;;18.40;99.90;;;;;;2569023;23;19997;-76
2022/08/31 04:43:24;;;;;;;2.22;1.38;;;18.40;99.90;;;;;;2568376;23;20047;-76
2022/08/31 04:44:25;;;;;;;2.13;1.23;;;18.40;99.90;;;;;;2568680;23;20007;-76
2022/08/31 04:45:26;;;;;;;1.40;1.27;;;18.30;99.90;;;;;;2555570;23;20458;-75
2022/08/31 04:46:28;;;;;;;2.92;1.52;;;18.30;99.90;;;;;;2555542;23;20327;-76
2022/08/31 04:47:29;;;;;;;2.08;1.42;;;18.30;99.90;;;;;;2555249;23;20418;-75
2022/08/31 04:48:30;;;;;;;1.63;1.20;;;18.30;99.90;;;;;;2568984;23;20025;-75
2022/08/31 04:49:31;;;;;;;3.67;1.60;;;18.30;99.90;;;;;;2568666;23;20000;-76
2022/08/31 04:50:31;;;;;;;3.15;1.70;;;18.30;99.90;;;;;;2555434;23;20005;-76
2022/08/31 04:51:34;;;;;;;2.30;1.40;;;18.30;99.90;;;;;;2555499;23;20093;-76
2022/08/31 04:52:35;;;;;;;2.28;1.60;;;18.30;99.90;;;;;;2555278;23;20445;-76
2022/08/31 04:53:36;;;;;;;2.80;1.20;;;18.30;99.90;;;;;;2555417;23;20370;-76
2022/08/31 04:54:36;;;;;;;3.88;1.48;;;18.30;99.90;;;;;;2555562;23;20053;-76
2022/08/31 04:55:39;;;;;;;3.08;1.20;;;18.30;99.90;;;;;;2555182;23;20005;-76
2022/08/31 04:56:43;;;;;;;2.25;1.50;;;18.30;99.90;;;;;;2555554;23;20012;-76
2022/08/31 04:57:43;;;;;;;2.03;1.15;;;18.20;99.90;;;;;;2543195;23;20515;-76
2022/08/31 04:58:48;;;;;;;1.88;1.55;;;18.20;99.90;;;;;;2555242;23;20001;-76
2022/08/31 04:59:49;;;;;;;1.63;1.40;;;18.20;99.90;;;;;;2568665;23;19997;-75
2022/08/31 05:00:50;;;;;;;1.60;1.48;;;18.20;99.90;;;;;;2568654;23;20007;-76
2022/08/31 05:01:51;;;;;;;3.67;1.48;;;18.20;99.90;;;;;;2555772;23;20008;-76
2022/08/31 05:02:52;;;;;;;3.90;1.55;;;18.20;99.90;;;;;;2555419;23;20060;-75
2022/08/31 05:03:55;;;;;;;1.70;1.60;;;18.20;99.90;;;;;;2568087;23;19997;-75
2022/08/31 05:04:56;;;;;;;3.33;1.50;;;18.10;99.90;;;;;;2568855;23;19996;-76
2022/08/31 05:05:56;;;;;;;1.45;1.10;;;18.10;99.90;;;;;;2568600;23;20007;-76
2022/08/31 05:06:57;;;;;;;2.85;1.38;;;18.10;99.90;;;;;;2568746;23;20025;-76
2022/08/31 05:07:58;;;;;;;1.83;1.58;;;18.10;99.90;;;;;;2568406;23;20689;-76
2022/08/31 05:09:02;;;;;;;3.88;1.70;;;18.10;99.90;;;;;;2568755;23;20040;-76
2022/08/31 05:10:03;;;;;;;3.00;1.40;;;18.10;99.90;;;;;;2555498;23;20005;-76
2022/08/31 05:11:15;;;;;;;2.00;1.80;;;18.10;99.90;;;;;;2555682;23;20015;-75
2022/08/31 05:12:16;;;;;;;3.90;1.30;;;18.10;99.90;;;;;;2568430;23;20013;-76
2022/08/31 05:13:16;;;;;;;2.17;1.67;;;18.00;99.90;;;;;;2568082;23;20005;-76
2022/08/31 05:14:17;;;;;;;2.60;1.48;;;18.00;99.90;;;;;;2568939;23;20310;-76
2022/08/31 05:15:18;;;;;;;2.60;1.67;;;18.00;99.90;;;;;;2568591;23;20001;-76
2022/08/31 05:16:19;;;;;;;2.90;1.42;;;18.00;99.90;;;;;;2568367;23;20433;-76
2022/08/31 05:17:20;;;;;;;3.53;1.40;;;18.00;99.90;;;;;;2568297;23;20063;-75
2022/08/31 05:18:21;;;;;;;1.95;1.70;;;18.00;99.90;;;;;;2569199;23;20044;-75
2022/08/31 05:19:21;;;;;;;1.38;1.15;;;18.00;99.90;;;;;;2569369;23;20029;-76
2022/08/31 05:20:22;;;;;;;2.63;1.50;;;18.00;99.90;;;;;;2569042;23;20011;-76
2022/08/31 05:21:29;;;;;;;2.33;1.30;;;18.00;99.90;;;;;;2569775;23;20039;-76
2022/08/31 05:22:30;;;;;;;1.95;1.35;;;18.00;99.90;;;;;;2569572;23;20380;-76
2022/08/31 05:23:30;;;;;;;2.00;1.80;;;18.00;99.90;;;;;;2569320;23;20042;-76
2022/08/31 05:24:34;;;;;;;4.13;1.60;;;18.00;99.90;;;;;;2569728;23;20024;-76
2022/08/31 05:25:38;;;;;;;3.10;1.45;;;18.00;99.90;;;;;;2556464;23;20009;-76